sensor_id;sensor_type;location;lat;lon;timestamp;P1;durP1;ratioP1;P2;durP2;ratioP2
10381;SDS011;11635;53.636;10.120;2023-04-24T00:01:21;7.70;;;5.88;;
10381;SDS011;11635;53.636;10.120;2023-04-24T00:03:47;7.45;;;5.30;;
10381;SDS011;11635;53.636;10.120;2023-04-24T00:06:14;6.25;;;5.57;;
10381;SDS011;11635;53.636;10.120;2023-04-24T00:08:42;6.90;;;6.07;;
10381;SDS011;11635;53.636;10.120;2023-04-24T00:11:08;6.75;;;5.97;;
10381;SDS011;11635;53.636;10.120;2023-04-24T00:13:36;6.50;;;5.60;;
10381;SDS011;11635;53.636;10.120;2023-04-24T00:16:03;6.45;;;4.93;;
10381;SDS011;11635;53.636;10.120;2023-04-24T00:18:30;6.45;;;5.57;;
10381;SDS011;11635;53.636;10.120;2023-04-24T00:20:56;6.65;;;5.40;;
10381;SDS011;11635;53.636;10.120;2023-04-24T00:23:23;6.28;;;5.43;;
10381;SDS011;11635;53.636;10.120;2023-04-24T00:25:50;7.05;;;5.40;;
10381;SDS011;11635;53.636;10.120;2023-04-24T00:28:16;6.85;;;5.95;;
10381;SDS011;11635;53.636;10.120;2023-04-24T00:30:44;6.10;;;5.50;;
10381;SDS011;11635;53.636;10.120;2023-04-24T00:33:10;5.95;;;5.45;;
10381;SDS011;11635;53.636;10.120;2023-04-24T00:35:36;5.95;;;5.35;;
10381;SDS011;11635;53.636;10.120;2023-04-24T00:38:03;6.50;;;5.88;;
10381;SDS011;11635;53.636;10.120;2023-04-24T00:40:29;5.82;;;5.20;;
10381;SDS011;11635;53.636;10.120;2023-04-24T00:42:56;7.93;;;5.95;;
10381;SDS011;11635;53.636;10.120;2023-04-24T00:45:22;6.07;;;5.47;;
10381;SDS011;11635;53.636;10.120;2023-04-24T00:47:50;6.35;;;5.75;;
10381;SDS011;11635;53.636;10.120;2023-04-24T00:50:18;6.53;;;5.93;;
10381;SDS011;11635;53.636;10.120;2023-04-24T00:52:44;7.00;;;6.40;;
10381;SDS011;11635;53.636;10.120;2023-04-24T00:55:11;6.55;;;5.88;;
10381;SDS011;11635;53.636;10.120;2023-04-24T00:57:37;6.57;;;5.90;;
10381;SDS011;11635;53.636;10.120;2023-04-24T01:00:04;7.38;;;6.43;;
10381;SDS011;11635;53.636;10.120;2023-04-24T01:02:32;6.68;;;6.07;;
10381;SDS011;11635;53.636;10.120;2023-04-24T01:05:01;6.78;;;5.97;;
10381;SDS011;11635;53.636;10.120;2023-04-24T01:07:27;8.95;;;6.28;;
10381;SDS011;11635;53.636;10.120;2023-04-24T01:09:55;8.10;;;7.30;;
10381;SDS011;11635;53.636;10.120;2023-04-24T01:12:21;7.05;;;6.38;;
10381;SDS011;11635;53.636;10.120;2023-04-24T01:14:48;7.57;;;6.78;;
10381;SDS011;11635;53.636;10.120;2023-04-24T01:17:14;7.55;;;6.15;;
10381;SDS011;11635;53.636;10.120;2023-04-24T01:19:40;7.47;;;6.30;;
10381;SDS011;11635;53.636;10.120;2023-04-24T01:22:11;6.55;;;5.85;;
10381;SDS011;11635;53.636;10.120;2023-04-24T01:24:39;6.97;;;6.20;;
10381;SDS011;11635;53.636;10.120;2023-04-24T01:27:05;8.77;;;5.60;;
10381;SDS011;11635;53.636;10.120;2023-04-24T01:29:32;6.85;;;6.20;;
10381;SDS011;11635;53.636;10.120;2023-04-24T01:31:58;6.93;;;6.22;;
10381;SDS011;11635;53.636;10.120;2023-04-24T01:34:25;6.85;;;5.82;;
10381;SDS011;11635;53.636;10.120;2023-04-24T01:36:51;6.38;;;5.68;;
10381;SDS011;11635;53.636;10.120;2023-04-24T01:39:19;6.45;;;5.85;;
10381;SDS011;11635;53.636;10.120;2023-04-24T01:41:48;6.03;;;5.43;;
10381;SDS011;11635;53.636;10.120;2023-04-24T01:44:15;5.30;;;4.90;;
10381;SDS011;11635;53.636;10.120;2023-04-24T01:46:41;5.13;;;4.72;;
10381;SDS011;11635;53.636;10.120;2023-04-24T01:49:08;6.18;;;5.05;;
10381;SDS011;11635;53.636;10.120;2023-04-24T01:51:34;5.57;;;4.57;;
10381;SDS011;11635;53.636;10.120;2023-04-24T01:54:00;5.35;;;4.60;;
10381;SDS011;11635;53.636;10.120;2023-04-24T01:56:29;6.40;;;4.28;;
10381;SDS011;11635;53.636;10.120;2023-04-24T01:58:55;5.78;;;3.88;;
10381;SDS011;11635;53.636;10.120;2023-04-24T02:01:23;4.50;;;3.72;;
10381;SDS011;11635;53.636;10.120;2023-04-24T02:03:49;4.30;;;3.90;;
10381;SDS011;11635;53.636;10.120;2023-04-24T02:06:16;4.43;;;3.92;;
10381;SDS011;11635;53.636;10.120;2023-04-24T02:08:42;4.10;;;3.70;;
10381;SDS011;11635;53.636;10.120;2023-04-24T02:11:09;3.60;;;3.30;;
10381;SDS011;11635;53.636;10.120;2023-04-24T02:13:37;4.45;;;3.90;;
10381;SDS011;11635;53.636;10.120;2023-04-24T02:16:03;3.67;;;3.38;;
10381;SDS011;11635;53.636;10.120;2023-04-24T02:18:29;3.92;;;3.53;;
10381;SDS011;11635;53.636;10.120;2023-04-24T02:20:56;3.70;;;3.30;;
10381;SDS011;11635;53.636;10.120;2023-04-24T02:23:22;3.92;;;3.63;;
10381;SDS011;11635;53.636;10.120;2023-04-24T02:25:49;4.28;;;3.28;;
10381;SDS011;11635;53.636;10.120;2023-04-24T02:28:15;6.00;;;3.42;;
10381;SDS011;11635;53.636;10.120;2023-04-24T02:30:43;4.00;;;3.60;;
10381;SDS011;11635;53.636;10.120;2023-04-24T02:33:09;4.18;;;3.75;;
10381;SDS011;11635;53.636;10.120;2023-04-24T02:35:35;4.07;;;3.28;;
10381;SDS011;11635;53.636;10.120;2023-04-24T02:38:02;3.40;;;2.90;;
10381;SDS011;11635;53.636;10.120;2023-04-24T02:40:28;3.85;;;3.38;;
10381;SDS011;11635;53.636;10.120;2023-04-24T02:42:54;3.25;;;3.00;;
10381;SDS011;11635;53.636;10.120;2023-04-24T02:45:21;4.38;;;3.97;;
10381;SDS011;11635;53.636;10.120;2023-04-24T02:47:49;3.25;;;2.95;;
10381;SDS011;11635;53.636;10.120;2023-04-24T02:50:15;3.80;;;3.40;;
10381;SDS011;11635;53.636;10.120;2023-04-24T02:52:42;4.68;;;3.17;;
10381;SDS011;11635;53.636;10.120;2023-04-24T02:55:08;4.15;;;3.35;;
10381;SDS011;11635;53.636;10.120;2023-04-24T02:57:34;3.17;;;2.88;;
10381;SDS011;11635;53.636;10.120;2023-04-24T03:00:01;3.78;;;3.20;;
10381;SDS011;11635;53.636;10.120;2023-04-24T03:02:28;4.03;;;2.92;;
10381;SDS011;11635;53.636;10.120;2023-04-24T03:04:56;4.03;;;3.05;;
10381;SDS011;11635;53.636;10.120;2023-04-24T03:07:22;3.05;;;2.75;;
10381;SDS011;11635;53.636;10.120;2023-04-24T03:09:49;2.92;;;2.67;;
10381;SDS011;11635;53.636;10.120;2023-04-24T03:12:15;4.72;;;3.05;;
10381;SDS011;11635;53.636;10.120;2023-04-24T03:14:42;3.28;;;2.53;;
10381;SDS011;11635;53.636;10.120;2023-04-24T03:17:09;5.85;;;2.70;;
10381;SDS011;11635;53.636;10.120;2023-04-24T03:19:35;2.75;;;2.55;;
10381;SDS011;11635;53.636;10.120;2023-04-24T03:22:03;2.75;;;2.22;;
10381;SDS011;11635;53.636;10.120;2023-04-24T03:24:29;2.88;;;2.58;;
10381;SDS011;11635;53.636;10.120;2023-04-24T03:26:56;2.63;;;2.42;;
10381;SDS011;11635;53.636;10.120;2023-04-24T03:29:22;2.70;;;2.42;;
10381;SDS011;11635;53.636;10.120;2023-04-24T03:31:49;2.15;;;1.95;;
10381;SDS011;11635;53.636;10.120;2023-04-24T03:34:15;2.30;;;2.10;;
10381;SDS011;11635;53.636;10.120;2023-04-24T03:36:41;2.10;;;1.90;;
10381;SDS011;11635;53.636;10.120;2023-04-24T03:39:09;2.50;;;2.13;;
10381;SDS011;11635;53.636;10.120;2023-04-24T03:41:36;3.35;;;2.08;;
10381;SDS011;11635;53.636;10.120;2023-04-24T03:44:02;2.92;;;1.98;;
10381;SDS011;11635;53.636;10.120;2023-04-24T03:46:28;2.35;;;2.15;;
10381;SDS011;11635;53.636;10.120;2023-04-24T03:48:55;2.10;;;1.90;;
10381;SDS011;11635;53.636;10.120;2023-04-24T03:51:21;2.83;;;1.83;;
10381;SDS011;11635;53.636;10.120;2023-04-24T03:53:47;2.33;;;2.13;;
10381;SDS011;11635;53.636;10.120;2023-04-24T03:56:15;2.10;;;2.00;;
10381;SDS011;11635;53.636;10.120;2023-04-24T03:58:42;4.13;;;1.85;;
10381;SDS011;11635;53.636;10.120;2023-04-24T04:01:08;1.85;;;1.75;;
10381;SDS011;11635;53.636;10.120;2023-04-24T04:03:35;2.13;;;1.92;;
10381;SDS011;11635;53.636;10.120;2023-04-24T04:06:01;2.45;;;2.15;;
10381;SDS011;11635;53.636;10.120;2023-04-24T04:08:28;3.15;;;2.13;;
10381;SDS011;11635;53.636;10.120;2023-04-24T04:10:55;1.98;;;1.77;;
10381;SDS011;11635;53.636;10.120;2023-04-24T04:13:23;2.10;;;1.90;;
10381;SDS011;11635;53.636;10.120;2023-04-24T04:15:49;2.00;;;1.80;;
10381;SDS011;11635;53.636;10.120;2023-04-24T04:18:16;1.80;;;1.70;;
10381;SDS011;11635;53.636;10.120;2023-04-24T04:20:42;2.35;;;1.92;;
10381;SDS011;11635;53.636;10.120;2023-04-24T04:23:08;2.55;;;2.30;;
10381;SDS011;11635;53.636;10.120;2023-04-24T04:25:35;3.47;;;2.15;;
10381;SDS011;11635;53.636;10.120;2023-04-24T04:28:01;5.07;;;2.05;;
10381;SDS011;11635;53.636;10.120;2023-04-24T04:30:29;3.17;;;1.73;;
10381;SDS011;11635;53.636;10.120;2023-04-24T04:32:57;1.88;;;1.77;;
10381;SDS011;11635;53.636;10.120;2023-04-24T04:35:23;2.00;;;1.75;;
10381;SDS011;11635;53.636;10.120;2023-04-24T04:37:50;2.22;;;1.90;;
10381;SDS011;11635;53.636;10.120;2023-04-24T04:40:16;2.25;;;1.83;;
10381;SDS011;11635;53.636;10.120;2023-04-24T04:42:42;2.28;;;1.70;;
10381;SDS011;11635;53.636;10.120;2023-04-24T04:45:11;2.10;;;1.77;;
10381;SDS011;11635;53.636;10.120;2023-04-24T04:47:39;3.67;;;1.75;;
10381;SDS011;11635;53.636;10.120;2023-04-24T04:50:05;2.13;;;1.77;;
10381;SDS011;11635;53.636;10.120;2023-04-24T04:52:32;2.13;;;1.63;;
10381;SDS011;11635;53.636;10.120;2023-04-24T04:54:58;1.75;;;1.60;;
10381;SDS011;11635;53.636;10.120;2023-04-24T04:57:25;2.55;;;1.67;;
10381;SDS011;11635;53.636;10.120;2023-04-24T04:59:51;1.98;;;1.50;;
10381;SDS011;11635;53.636;10.120;2023-04-24T05:02:17;2.72;;;1.90;;
10381;SDS011;11635;53.636;10.120;2023-04-24T05:04:45;2.17;;;1.70;;
10381;SDS011;11635;53.636;10.120;2023-04-24T05:07:11;1.60;;;1.50;;
10381;SDS011;11635;53.636;10.120;2023-04-24T05:09:38;1.75;;;1.63;;
10381;SDS011;11635;53.636;10.120;2023-04-24T05:12:04;1.98;;;1.77;;
10381;SDS011;11635;53.636;10.120;2023-04-24T05:14:30;1.73;;;1.63;;
10381;SDS011;11635;53.636;10.120;2023-04-24T05:16:57;1.70;;;1.52;;
10381;SDS011;11635;53.636;10.120;2023-04-24T05:19:25;1.75;;;1.65;;
10381;SDS011;11635;53.636;10.120;2023-04-24T05:21:52;2.22;;;1.77;;
10381;SDS011;11635;53.636;10.120;2023-04-24T05:24:19;2.15;;;1.75;;
10381;SDS011;11635;53.636;10.120;2023-04-24T05:26:45;4.90;;;1.85;;
10381;SDS011;11635;53.636;10.120;2023-04-24T05:29:12;1.42;;;1.33;;
10381;SDS011;11635;53.636;10.120;2023-04-24T05:31:38;2.03;;;1.55;;
10381;SDS011;11635;53.636;10.120;2023-04-24T05:34:05;3.22;;;1.33;;
10381;SDS011;11635;53.636;10.120;2023-04-24T05:36:32;1.95;;;1.52;;
10381;SDS011;11635;53.636;10.120;2023-04-24T05:39:01;1.65;;;1.40;;
10381;SDS011;11635;53.636;10.120;2023-04-24T05:41:30;3.45;;;1.40;;
10381;SDS011;11635;53.636;10.120;2023-04-24T05:43:57;1.60;;;1.50;;
10381;SDS011;11635;53.636;10.120;2023-04-24T05:46:24;1.25;;;1.10;;
10381;SDS011;11635;53.636;10.120;2023-04-24T05:48:52;1.63;;;1.25;;
10381;SDS011;11635;53.636;10.120;2023-04-24T05:51:20;1.90;;;1.70;;
10381;SDS011;11635;53.636;10.120;2023-04-24T05:53:47;3.53;;;1.23;;
10381;SDS011;11635;53.636;10.120;2023-04-24T05:56:16;1.45;;;1.35;;
10381;SDS011;11635;53.636;10.120;2023-04-24T05:58:45;1.48;;;1.38;;
10381;SDS011;11635;53.636;10.120;2023-04-24T06:01:16;1.70;;;1.23;;
10381;SDS011;11635;53.636;10.120;2023-04-24T06:03:53;1.30;;;1.20;;
10381;SDS011;11635;53.636;10.120;2023-04-24T06:06:23;3.35;;;1.70;;
10381;SDS011;11635;53.636;10.120;2023-04-24T06:08:51;2.38;;;1.60;;
10381;SDS011;11635;53.636;10.120;2023-04-24T06:11:22;1.98;;;1.50;;
10381;SDS011;11635;53.636;10.120;2023-04-24T06:13:51;2.47;;;1.60;;
10381;SDS011;11635;53.636;10.120;2023-04-24T06:16:18;2.42;;;1.50;;
10381;SDS011;11635;53.636;10.120;2023-04-24T06:18:45;1.90;;;1.50;;
10381;SDS011;11635;53.636;10.120;2023-04-24T06:21:18;1.98;;;1.30;;
10381;SDS011;11635;53.636;10.120;2023-04-24T06:23:44;1.63;;;1.50;;
10381;SDS011;11635;53.636;10.120;2023-04-24T06:26:11;2.50;;;1.48;;
10381;SDS011;11635;53.636;10.120;2023-04-24T06:28:39;1.27;;;1.17;;
10381;SDS011;11635;53.636;10.120;2023-04-24T06:31:05;2.90;;;1.45;;
10381;SDS011;11635;53.636;10.120;2023-04-24T06:33:32;1.67;;;1.40;;
10381;SDS011;11635;53.636;10.120;2023-04-24T06:35:58;1.85;;;1.25;;
10381;SDS011;11635;53.636;10.120;2023-04-24T06:38:25;2.60;;;1.33;;
10381;SDS011;11635;53.636;10.120;2023-04-24T06:40:51;1.35;;;1.20;;
10381;SDS011;11635;53.636;10.120;2023-04-24T06:43:17;2.53;;;1.50;;
10381;SDS011;11635;53.636;10.120;2023-04-24T06:45:45;1.40;;;1.30;;
10381;SDS011;11635;53.636;10.120;2023-04-24T06:48:12;1.40;;;1.30;;
10381;SDS011;11635;53.636;10.120;2023-04-24T06:50:38;1.50;;;1.40;;
10381;SDS011;11635;53.636;10.120;2023-04-24T06:53:05;1.50;;;1.40;;
10381;SDS011;11635;53.636;10.120;2023-04-24T06:55:31;1.60;;;1.23;;
10381;SDS011;11635;53.636;10.120;2023-04-24T06:57:57;2.03;;;1.40;;
10381;SDS011;11635;53.636;10.120;2023-04-24T07:00:24;1.40;;;1.30;;
10381;SDS011;11635;53.636;10.120;2023-04-24T07:02:51;1.38;;;1.27;;
10381;SDS011;11635;53.636;10.120;2023-04-24T07:05:18;3.63;;;1.40;;
10381;SDS011;11635;53.636;10.120;2023-04-24T07:07:45;1.65;;;1.50;;
10381;SDS011;11635;53.636;10.120;2023-04-24T07:10:12;1.48;;;1.38;;
10381;SDS011;11635;53.636;10.120;2023-04-24T07:12:39;1.50;;;1.40;;
10381;SDS011;11635;53.636;10.120;2023-04-24T07:15:06;1.40;;;1.30;;
10381;SDS011;11635;53.636;10.120;2023-04-24T07:17:32;1.50;;;1.40;;
10381;SDS011;11635;53.636;10.120;2023-04-24T07:20:01;2.92;;;1.63;;
10381;SDS011;11635;53.636;10.120;2023-04-24T07:22:28;2.33;;;1.70;;
10381;SDS011;11635;53.636;10.120;2023-04-24T07:24:54;2.38;;;1.65;;
10381;SDS011;11635;53.636;10.120;2023-04-24T07:27:20;4.20;;;1.70;;
10381;SDS011;11635;53.636;10.120;2023-04-24T07:29:47;2.22;;;1.63;;
10381;SDS011;11635;53.636;10.120;2023-04-24T07:32:13;1.65;;;1.35;;
10381;SDS011;11635;53.636;10.120;2023-04-24T07:34:40;1.88;;;1.75;;
10381;SDS011;11635;53.636;10.120;2023-04-24T07:37:07;1.80;;;1.70;;
10381;SDS011;11635;53.636;10.120;2023-04-24T07:39:34;4.18;;;2.60;;
10381;SDS011;11635;53.636;10.120;2023-04-24T07:42:00;1.70;;;1.55;;
10381;SDS011;11635;53.636;10.120;2023-04-24T07:44:27;1.88;;;1.70;;
10381;SDS011;11635;53.636;10.120;2023-04-24T07:46:53;3.25;;;1.75;;
10381;SDS011;11635;53.636;10.120;2023-04-24T07:49:20;1.80;;;1.70;;
10381;SDS011;11635;53.636;10.120;2023-04-24T07:51:46;2.58;;;1.85;;
10381;SDS011;11635;53.636;10.120;2023-04-24T07:54:14;2.92;;;1.80;;
10381;SDS011;11635;53.636;10.120;2023-04-24T07:56:43;2.10;;;1.80;;
10381;SDS011;11635;53.636;10.120;2023-04-24T07:59:09;3.38;;;1.60;;
10381;SDS011;11635;53.636;10.120;2023-04-24T08:01:36;1.83;;;1.73;;
10381;SDS011;11635;53.636;10.120;2023-04-24T08:04:02;1.95;;;1.80;;
10381;SDS011;11635;53.636;10.120;2023-04-24T08:06:29;3.60;;;2.33;;
10381;SDS011;11635;53.636;10.120;2023-04-24T08:08:56;2.60;;;2.40;;
10381;SDS011;11635;53.636;10.120;2023-04-24T08:11:24;2.78;;;2.47;;
10381;SDS011;11635;53.636;10.120;2023-04-24T08:13:51;2.42;;;2.22;;
10381;SDS011;11635;53.636;10.120;2023-04-24T08:16:17;2.60;;;2.40;;
10381;SDS011;11635;53.636;10.120;2023-04-24T08:18:44;2.92;;;2.42;;
10381;SDS011;11635;53.636;10.120;2023-04-24T08:21:10;3.60;;;2.40;;
10381;SDS011;11635;53.636;10.120;2023-04-24T08:23:42;2.53;;;2.33;;
10381;SDS011;11635;53.636;10.120;2023-04-24T08:26:08;2.65;;;2.45;;
10381;SDS011;11635;53.636;10.120;2023-04-24T08:28:37;3.35;;;2.20;;
10381;SDS011;11635;53.636;10.120;2023-04-24T08:31:03;3.35;;;2.78;;
10381;SDS011;11635;53.636;10.120;2023-04-24T08:33:30;3.65;;;2.42;;
10381;SDS011;11635;53.636;10.120;2023-04-24T08:35:59;4.60;;;2.85;;
10381;SDS011;11635;53.636;10.120;2023-04-24T08:38:26;3.45;;;2.67;;
10381;SDS011;11635;53.636;10.120;2023-04-24T08:40:52;3.22;;;2.92;;
10381;SDS011;11635;53.636;10.120;2023-04-24T08:43:19;2.95;;;2.38;;
10381;SDS011;11635;53.636;10.120;2023-04-24T08:45:49;2.90;;;2.70;;
10381;SDS011;11635;53.636;10.120;2023-04-24T08:48:16;3.78;;;3.38;;
10381;SDS011;11635;53.636;10.120;2023-04-24T08:50:42;3.78;;;3.15;;
10381;SDS011;11635;53.636;10.120;2023-04-24T08:53:09;3.58;;;3.28;;
10381;SDS011;11635;53.636;10.120;2023-04-24T08:55:36;4.10;;;3.80;;
10381;SDS011;11635;53.636;10.120;2023-04-24T08:58:03;3.80;;;3.50;;
10381;SDS011;11635;53.636;10.120;2023-04-24T09:00:29;5.18;;;3.65;;
10381;SDS011;11635;53.636;10.120;2023-04-24T09:02:57;4.93;;;4.45;;
10381;SDS011;11635;53.636;10.120;2023-04-24T09:05:24;4.82;;;4.40;;
10381;SDS011;11635;53.636;10.120;2023-04-24T09:07:53;4.88;;;4.38;;
10381;SDS011;11635;53.636;10.120;2023-04-24T09:10:20;3.85;;;3.42;;
10381;SDS011;11635;53.636;10.120;2023-04-24T09:12:46;4.10;;;3.70;;
10381;SDS011;11635;53.636;10.120;2023-04-24T09:15:13;3.53;;;3.03;;
10381;SDS011;11635;53.636;10.120;2023-04-24T09:17:40;4.65;;;3.65;;
10381;SDS011;11635;53.636;10.120;2023-04-24T09:20:08;3.80;;;3.33;;
10381;SDS011;11635;53.636;10.120;2023-04-24T09:22:34;3.85;;;3.55;;
10381;SDS011;11635;53.636;10.120;2023-04-24T09:25:02;4.10;;;3.70;;
10381;SDS011;11635;53.636;10.120;2023-04-24T09:27:28;5.10;;;3.83;;
10381;SDS011;11635;53.636;10.120;2023-04-24T09:29:55;3.97;;;3.33;;
10381;SDS011;11635;53.636;10.120;2023-04-24T09:32:22;3.50;;;3.17;;
10381;SDS011;11635;53.636;10.120;2023-04-24T09:35:04;3.90;;;3.38;;
10381;SDS011;11635;53.636;10.120;2023-04-24T09:37:34;3.53;;;3.22;;
10381;SDS011;11635;53.636;10.120;2023-04-24T09:40:07;4.32;;;3.40;;
10381;SDS011;11635;53.636;10.120;2023-04-24T09:42:33;3.97;;;3.58;;
10381;SDS011;11635;53.636;10.120;2023-04-24T09:45:00;4.20;;;3.80;;
10381;SDS011;11635;53.636;10.120;2023-04-24T09:47:27;4.88;;;3.92;;
10381;SDS011;11635;53.636;10.120;2023-04-24T09:49:54;4.47;;;3.47;;
10381;SDS011;11635;53.636;10.120;2023-04-24T09:52:23;4.22;;;3.67;;
10381;SDS011;11635;53.636;10.120;2023-04-24T09:54:53;4.03;;;3.67;;
10381;SDS011;11635;53.636;10.120;2023-04-24T09:57:20;4.25;;;3.85;;
10381;SDS011;11635;53.636;10.120;2023-04-24T09:59:46;4.45;;;4.05;;
10381;SDS011;11635;53.636;10.120;2023-04-24T10:02:16;4.20;;;3.80;;
10381;SDS011;11635;53.636;10.120;2023-04-24T10:04:53;4.60;;;4.20;;
10381;SDS011;11635;53.636;10.120;2023-04-24T10:07:20;4.82;;;3.92;;
10381;SDS011;11635;53.636;10.120;2023-04-24T10:09:46;5.32;;;3.90;;
10381;SDS011;11635;53.636;10.120;2023-04-24T10:12:14;4.97;;;4.55;;
10381;SDS011;11635;53.636;10.120;2023-04-24T10:14:41;4.70;;;4.18;;
10381;SDS011;11635;53.636;10.120;2023-04-24T10:17:07;4.35;;;4.05;;
10381;SDS011;11635;53.636;10.120;2023-04-24T10:19:34;7.40;;;4.85;;
10381;SDS011;11635;53.636;10.120;2023-04-24T10:22:00;4.72;;;4.32;;
10381;SDS011;11635;53.636;10.120;2023-04-24T10:24:27;4.70;;;4.30;;
10381;SDS011;11635;53.636;10.120;2023-04-24T10:26:54;5.70;;;5.10;;
10381;SDS011;11635;53.636;10.120;2023-04-24T10:29:23;5.05;;;4.60;;
10381;SDS011;11635;53.636;10.120;2023-04-24T10:31:49;6.40;;;4.88;;
10381;SDS011;11635;53.636;10.120;2023-04-24T10:34:16;8.00;;;4.75;;
10381;SDS011;11635;53.636;10.120;2023-04-24T10:36:46;6.60;;;5.80;;
10381;SDS011;11635;53.636;10.120;2023-04-24T10:39:14;5.88;;;5.35;;
10381;SDS011;11635;53.636;10.120;2023-04-24T10:41:40;6.30;;;5.70;;
10381;SDS011;11635;53.636;10.120;2023-04-24T10:44:07;6.50;;;5.90;;
10381;SDS011;11635;53.636;10.120;2023-04-24T10:46:36;5.97;;;5.47;;
10381;SDS011;11635;53.636;10.120;2023-04-24T10:49:03;6.88;;;6.28;;
10381;SDS011;11635;53.636;10.120;2023-04-24T10:51:43;8.52;;;5.88;;
10381;SDS011;11635;53.636;10.120;2023-04-24T10:54:21;9.70;;;6.88;;
10381;SDS011;11635;53.636;10.120;2023-04-24T10:56:47;7.75;;;6.35;;
10381;SDS011;11635;53.636;10.120;2023-04-24T10:59:19;8.38;;;6.72;;
10381;SDS011;11635;53.636;10.120;2023-04-24T11:01:53;7.20;;;6.50;;
10381;SDS011;11635;53.636;10.120;2023-04-24T11:04:29;8.38;;;7.22;;
10381;SDS011;11635;53.636;10.120;2023-04-24T11:06:56;8.85;;;7.05;;
10381;SDS011;11635;53.636;10.120;2023-04-24T11:09:22;8.13;;;7.28;;
10381;SDS011;11635;53.636;10.120;2023-04-24T11:11:52;8.40;;;7.53;;
10381;SDS011;11635;53.636;10.120;2023-04-24T11:14:28;10.48;;;8.05;;
10381;SDS011;11635;53.636;10.120;2023-04-24T11:16:56;8.85;;;7.95;;
10381;SDS011;11635;53.636;10.120;2023-04-24T11:19:23;8.13;;;7.22;;
10381;SDS011;11635;53.636;10.120;2023-04-24T11:21:54;8.80;;;7.63;;
10381;SDS011;11635;53.636;10.120;2023-04-24T11:24:23;9.10;;;7.68;;
10381;SDS011;11635;53.636;10.120;2023-04-24T11:26:51;8.38;;;7.13;;
10381;SDS011;11635;53.636;10.120;2023-04-24T11:29:17;7.88;;;7.13;;
10381;SDS011;11635;53.636;10.120;2023-04-24T11:31:45;8.07;;;6.75;;
10381;SDS011;11635;53.636;10.120;2023-04-24T11:34:16;8.95;;;7.47;;
10381;SDS011;11635;53.636;10.120;2023-04-24T11:36:43;9.60;;;6.65;;
10381;SDS011;11635;53.636;10.120;2023-04-24T11:39:10;8.20;;;7.13;;
10381;SDS011;11635;53.636;10.120;2023-04-24T11:41:37;7.72;;;6.72;;
10381;SDS011;11635;53.636;10.120;2023-04-24T11:44:05;8.18;;;7.05;;
10381;SDS011;11635;53.636;10.120;2023-04-24T11:46:32;8.35;;;6.50;;
10381;SDS011;11635;53.636;10.120;2023-04-24T11:48:59;8.40;;;6.88;;
10381;SDS011;11635;53.636;10.120;2023-04-24T11:51:27;8.52;;;7.07;;
10381;SDS011;11635;53.636;10.120;2023-04-24T11:53:54;9.13;;;7.80;;
10381;SDS011;11635;53.636;10.120;2023-04-24T11:56:21;7.75;;;7.00;;
10381;SDS011;11635;53.636;10.120;2023-04-24T11:58:47;6.95;;;6.25;;
10381;SDS011;11635;53.636;10.120;2023-04-24T12:01:14;7.72;;;5.97;;
10381;SDS011;11635;53.636;10.120;2023-04-24T12:03:40;7.25;;;6.40;;
10381;SDS011;11635;53.636;10.120;2023-04-24T12:06:08;7.15;;;6.22;;
10381;SDS011;11635;53.636;10.120;2023-04-24T12:08:36;7.03;;;5.82;;
10381;SDS011;11635;53.636;10.120;2023-04-24T12:11:03;7.60;;;5.35;;
10381;SDS011;11635;53.636;10.120;2023-04-24T12:13:29;5.93;;;5.32;;
10381;SDS011;11635;53.636;10.120;2023-04-24T12:15:56;5.22;;;4.70;;
10381;SDS011;11635;53.636;10.120;2023-04-24T12:18:23;5.57;;;5.07;;
10381;SDS011;11635;53.636;10.120;2023-04-24T12:20:49;4.13;;;3.72;;
10381;SDS011;11635;53.636;10.120;2023-04-24T12:23:15;6.45;;;4.57;;
10381;SDS011;11635;53.636;10.120;2023-04-24T12:25:44;6.18;;;5.18;;
10381;SDS011;11635;53.636;10.120;2023-04-24T12:28:10;6.30;;;5.20;;
10381;SDS011;11635;53.636;10.120;2023-04-24T12:30:39;6.47;;;4.63;;
10381;SDS011;11635;53.636;10.120;2023-04-24T12:33:06;4.53;;;3.95;;
10381;SDS011;11635;53.636;10.120;2023-04-24T12:35:33;6.63;;;4.50;;
10381;SDS011;11635;53.636;10.120;2023-04-24T12:38:05;4.50;;;4.10;;
10381;SDS011;11635;53.636;10.120;2023-04-24T12:40:31;6.68;;;3.80;;
10381;SDS011;11635;53.636;10.120;2023-04-24T12:42:59;4.82;;;4.32;;
10381;SDS011;11635;53.636;10.120;2023-04-24T12:45:25;4.90;;;4.45;;
10381;SDS011;11635;53.636;10.120;2023-04-24T12:47:53;5.30;;;4.70;;
10381;SDS011;11635;53.636;10.120;2023-04-24T12:50:19;7.18;;;5.13;;
10381;SDS011;11635;53.636;10.120;2023-04-24T12:52:45;6.05;;;4.75;;
10381;SDS011;11635;53.636;10.120;2023-04-24T12:55:12;5.65;;;4.97;;
10381;SDS011;11635;53.636;10.120;2023-04-24T12:57:38;5.35;;;4.95;;
10381;SDS011;11635;53.636;10.120;2023-04-24T13:00:07;5.70;;;5.10;;
10381;SDS011;11635;53.636;10.120;2023-04-24T13:02:34;5.82;;;5.22;;
10381;SDS011;11635;53.636;10.120;2023-04-24T13:05:01;6.28;;;5.10;;
10381;SDS011;11635;53.636;10.120;2023-04-24T13:07:27;8.80;;;5.65;;
10381;SDS011;11635;53.636;10.120;2023-04-24T13:09:54;5.88;;;4.88;;
10381;SDS011;11635;53.636;10.120;2023-04-24T13:12:21;4.88;;;4.35;;
10381;SDS011;11635;53.636;10.120;2023-04-24T13:14:48;5.13;;;4.22;;
10381;SDS011;11635;53.636;10.120;2023-04-24T13:17:16;5.35;;;4.18;;
10381;SDS011;11635;53.636;10.120;2023-04-24T13:19:43;3.78;;;3.38;;
10381;SDS011;11635;53.636;10.120;2023-04-24T13:22:10;4.35;;;3.20;;
10381;SDS011;11635;53.636;10.120;2023-04-24T13:24:37;5.63;;;4.18;;
10381;SDS011;11635;53.636;10.120;2023-04-24T13:30:09;5.78;;;3.88;;
10381;SDS011;11635;53.636;10.120;2023-04-24T13:32:39;4.78;;;4.28;;
10381;SDS011;11635;53.636;10.120;2023-04-24T13:35:06;5.63;;;4.35;;
10381;SDS011;11635;53.636;10.120;2023-04-24T13:37:33;4.35;;;3.95;;
10381;SDS011;11635;53.636;10.120;2023-04-24T13:40:00;4.80;;;4.30;;
10381;SDS011;11635;53.636;10.120;2023-04-24T13:42:31;4.53;;;4.15;;
10381;SDS011;11635;53.636;10.120;2023-04-24T13:44:57;5.20;;;4.10;;
10381;SDS011;11635;53.636;10.120;2023-04-24T13:47:23;5.07;;;4.68;;
10381;SDS011;11635;53.636;10.120;2023-04-24T13:49:51;6.15;;;4.40;;
10381;SDS011;11635;53.636;10.120;2023-04-24T13:52:18;4.85;;;4.43;;
10381;SDS011;11635;53.636;10.120;2023-04-24T13:54:45;4.80;;;4.40;;
10381;SDS011;11635;53.636;10.120;2023-04-24T13:57:13;6.05;;;4.82;;
10381;SDS011;11635;53.636;10.120;2023-04-24T13:59:40;5.18;;;4.68;;
10381;SDS011;11635;53.636;10.120;2023-04-24T14:02:06;5.38;;;4.30;;
10381;SDS011;11635;53.636;10.120;2023-04-24T14:04:32;5.93;;;4.22;;
10381;SDS011;11635;53.636;10.120;2023-04-24T14:07:00;4.50;;;4.10;;
10381;SDS011;11635;53.636;10.120;2023-04-24T14:09:26;4.38;;;3.97;;
10381;SDS011;11635;53.636;10.120;2023-04-24T14:11:53;4.55;;;3.83;;
10381;SDS011;11635;53.636;10.120;2023-04-24T14:14:19;4.25;;;3.85;;
10381;SDS011;11635;53.636;10.120;2023-04-24T14:16:46;4.13;;;3.72;;
10381;SDS011;11635;53.636;10.120;2023-04-24T14:19:12;3.95;;;3.65;;
10381;SDS011;11635;53.636;10.120;2023-04-24T14:21:38;4.32;;;3.92;;
10381;SDS011;11635;53.636;10.120;2023-04-24T14:24:06;4.20;;;3.80;;
10381;SDS011;11635;53.636;10.120;2023-04-24T14:26:32;6.50;;;4.07;;
10381;SDS011;11635;53.636;10.120;2023-04-24T14:28:59;4.95;;;4.45;;
10381;SDS011;11635;53.636;10.120;2023-04-24T14:31:26;4.20;;;3.80;;
10381;SDS011;11635;53.636;10.120;2023-04-24T14:33:52;5.25;;;4.45;;
10381;SDS011;11635;53.636;10.120;2023-04-24T14:36:18;5.20;;;4.70;;